createdAt,value
2017-12-11T00:00:33.517Z,32.14
2017-12-11T00:03:00.899Z,32.24
2017-12-11T00:05:28.261Z,32.05
2017-12-11T00:07:55.664Z,32.07
2017-12-11T00:10:23.082Z,31.99
2017-12-11T00:12:50.527Z,32.07
2017-12-11T00:15:17.918Z,32.15
2017-12-11T00:17:45.310Z,32.06
2017-12-11T00:20:12.768Z,32.20
2017-12-11T00:22:40.175Z,32.13
2017-12-11T00:25:07.605Z,32.07
2017-12-11T00:27:34.983Z,32.08
2017-12-11T00:30:02.396Z,32.00
2017-12-11T00:32:29.775Z,32.15
2017-12-11T00:34:57.200Z,32.22
2017-12-11T00:37:24.562Z,32.16
2017-12-11T00:39:51.938Z,32.24
2017-12-11T00:42:19.374Z,32.11
2017-12-11T00:44:46.806Z,32.01
2017-12-11T00:47:14.187Z,32.20
2017-12-11T00:49:41.608Z,32.08
2017-12-11T00:52:08.970Z,32.00
2017-12-11T00:54:36.389Z,32.03
2017-12-11T00:57:03.762Z,31.96
2017-12-11T00:59:31.214Z,31.96
2017-12-11T01:01:58.636Z,31.98
2017-12-11T01:04:26.059Z,31.98
2017-12-11T01:06:53.432Z,32.19
2017-12-11T01:09:20.889Z,32.14
2017-12-11T01:11:48.275Z,32.00
2017-12-11T01:14:15.657Z,32.09
2017-12-11T01:16:43.179Z,31.99
2017-12-11T01:19:10.549Z,32.10
2017-12-11T01:21:37.906Z,32.10
2017-12-11T01:24:05.315Z,32.06
2017-12-11T01:26:32.720Z,32.01
2017-12-11T01:29:00.096Z,32.03
2017-12-11T01:31:27.476Z,31.97
2017-12-11T01:33:54.895Z,32.14
2017-12-11T01:36:22.308Z,31.97
2017-12-11T01:38:49.675Z,31.99
2017-12-11T01:41:17.040Z,32.05
2017-12-11T01:43:44.447Z,31.97
2017-12-11T01:46:11.822Z,32.01
2017-12-11T01:48:39.234Z,32.00
2017-12-11T01:51:06.697Z,31.85
2017-12-11T01:53:34.111Z,31.97
2017-12-11T01:56:01.484Z,32.08
2017-12-11T01:58:28.850Z,32.03
2017-12-11T02:00:56.245Z,32.03
2017-12-11T02:03:23.641Z,31.99
2017-12-11T02:05:51.006Z,31.92
2017-12-11T02:08:18.423Z,31.61
2017-12-11T02:10:45.806Z,31.79
2017-12-11T02:13:13.362Z,31.57
2017-12-11T02:15:40.771Z,31.63
2017-12-11T02:18:08.152Z,31.39
2017-12-11T02:20:35.527Z,31.29
2017-12-11T02:23:02.946Z,31.00
2017-12-11T02:25:30.376Z,31.17
2017-12-11T02:27:57.818Z,31.14
2017-12-11T02:30:25.246Z,30.97
2017-12-11T02:32:52.756Z,30.95
2017-12-11T02:35:20.170Z,30.97
2017-12-11T02:37:47.579Z,30.76
2017-12-11T02:40:15.004Z,30.72
2017-12-11T02:42:42.374Z,30.47
2017-12-11T02:45:09.743Z,30.47
2017-12-11T02:47:37.159Z,30.71
2017-12-11T02:50:04.563Z,30.52
2017-12-11T02:52:32.088Z,30.79
2017-12-11T02:54:59.510Z,30.31
2017-12-11T02:57:26.925Z,30.21
2017-12-11T02:59:54.326Z,30.07
2017-12-11T03:02:21.708Z,30.19
2017-12-11T03:04:49.110Z,30.42
2017-12-11T03:07:16.471Z,30.15
2017-12-11T03:09:43.870Z,30.17
2017-12-11T03:12:11.272Z,30.05
2017-12-11T03:14:38.863Z,30.02
2017-12-11T03:17:06.286Z,29.91
2017-12-11T03:19:33.667Z,29.86
2017-12-11T03:22:01.110Z,30.10
2017-12-11T03:24:28.546Z,30.05
2017-12-11T03:26:55.922Z,30.39
2017-12-11T03:29:23.350Z,29.91
2017-12-11T03:31:50.751Z,30.14
2017-12-11T03:34:18.128Z,30.00
2017-12-11T03:36:45.711Z,29.72
2017-12-11T03:39:13.097Z,29.81
2017-12-11T03:41:40.549Z,29.93
2017-12-11T03:44:07.970Z,30.49
2017-12-11T03:46:35.330Z,29.83
2017-12-11T03:49:02.735Z,29.96
2017-12-11T03:51:30.108Z,30.14
2017-12-11T03:53:57.557Z,30.03
2017-12-11T03:56:24.988Z,29.89
2017-12-11T03:58:52.399Z,29.71
2017-12-11T04:01:19.803Z,29.79
2017-12-11T04:03:47.192Z,29.84
2017-12-11T04:06:14.607Z,29.93
2017-12-11T04:08:41.977Z,29.96
2017-12-11T04:11:09.376Z,29.65
2017-12-11T04:13:36.747Z,29.55
2017-12-11T04:16:04.222Z,29.58
2017-12-11T04:18:31.642Z,29.63
2017-12-11T04:20:59.158Z,29.58
2017-12-11T04:23:26.605Z,29.61
2017-12-11T04:25:54.048Z,29.25
2017-12-11T04:28:21.498Z,29.36
2017-12-11T04:30:48.891Z,29.56
2017-12-11T04:33:16.322Z,29.54
2017-12-11T04:35:43.740Z,29.28
2017-12-11T04:38:11.188Z,29.22
2017-12-11T04:40:38.588Z,29.09
2017-12-11T04:43:06.034Z,29.25
2017-12-11T04:45:33.421Z,29.13
2017-12-11T04:48:00.823Z,29.21
2017-12-11T04:50:28.257Z,29.42
2017-12-11T04:52:55.644Z,29.45
2017-12-11T04:55:23.088Z,29.15
2017-12-11T04:57:50.467Z,28.98
2017-12-11T05:00:17.927Z,29.38
2017-12-11T05:02:45.395Z,29.08
2017-12-11T05:05:12.992Z,29.22
2017-12-11T05:07:40.431Z,29.33
2017-12-11T05:10:07.879Z,28.73
2017-12-11T05:12:35.410Z,28.67
2017-12-11T05:15:02.932Z,28.99
2017-12-11T05:17:30.382Z,28.97
2017-12-11T05:19:57.903Z,28.64
2017-12-11T05:22:25.318Z,29.03
2017-12-11T05:24:52.742Z,29.06
2017-12-11T05:27:20.183Z,28.94
2017-12-11T05:29:47.620Z,29.15
2017-12-11T05:32:15.002Z,28.95
2017-12-11T05:34:42.650Z,29.36
2017-12-11T05:37:10.177Z,28.64
2017-12-11T05:39:37.574Z,28.62
2017-12-11T05:42:05.069Z,28.93
2017-12-11T05:44:32.494Z,28.69
2017-12-11T05:46:59.890Z,28.61
2017-12-11T05:49:27.311Z,29.06
2017-12-11T05:51:54.822Z,28.94
2017-12-11T05:54:22.361Z,28.89
2017-12-11T05:56:49.805Z,28.70
2017-12-11T05:59:17.190Z,28.67
2017-12-11T06:01:44.710Z,28.75
2017-12-11T06:04:12.131Z,29.11
2017-12-11T06:06:40.102Z,28.72
2017-12-11T06:09:07.494Z,28.64
2017-12-11T06:11:34.919Z,28.41
2017-12-11T06:14:02.365Z,28.23
2017-12-11T06:16:29.820Z,28.55
2017-12-11T06:18:57.255Z,28.76
2017-12-11T06:21:24.690Z,28.96
2017-12-11T06:23:52.196Z,28.47
2017-12-11T06:26:19.621Z,28.43
2017-12-11T06:28:47.082Z,28.18
2017-12-11T06:31:14.613Z,28.35
2017-12-11T06:33:42.011Z,28.42
2017-12-11T06:36:09.674Z,27.95
2017-12-11T06:38:37.073Z,28.06
2017-12-11T06:41:04.503Z,27.96
2017-12-11T06:43:31.960Z,28.03
2017-12-11T06:45:59.403Z,28.21
2017-12-11T06:48:26.795Z,28.40
2017-12-11T06:50:54.223Z,28.28
2017-12-11T06:53:22.655Z,28.18
2017-12-11T06:55:50.136Z,28.44
2017-12-11T06:58:17.590Z,28.31
2017-12-11T07:00:44.967Z,28.21
2017-12-11T07:03:12.829Z,28.37
2017-12-11T07:05:41.367Z,28.26
2017-12-11T07:08:08.808Z,28.44
2017-12-11T07:10:36.373Z,28.05
2017-12-11T07:13:03.926Z,28.20
2017-12-11T07:15:31.406Z,28.03
2017-12-11T07:20:32.259Z,28.37
2017-12-11T07:22:59.810Z,28.38
2017-12-11T07:25:27.291Z,28.30
2017-12-11T07:27:55.027Z,27.95
2017-12-11T07:30:22.803Z,28.19
2017-12-11T07:32:50.648Z,28.19
2017-12-11T07:35:18.080Z,28.20
2017-12-11T07:37:45.641Z,29.22
2017-12-11T07:40:13.228Z,28.60
2017-12-11T07:42:40.881Z,28.42
2017-12-11T07:45:08.417Z,28.70
2017-12-11T07:47:36.070Z,28.28
2017-12-11T07:50:03.893Z,28.67
2017-12-11T07:52:31.700Z,28.28
2017-12-11T07:54:59.338Z,28.08
2017-12-11T07:57:26.823Z,28.02
2017-12-11T07:59:54.810Z,27.97
2017-12-11T08:02:22.598Z,27.98
2017-12-11T08:04:50.305Z,27.85
2017-12-11T08:07:18.059Z,27.84
2017-12-11T08:09:46.604Z,27.81
2017-12-11T08:12:14.262Z,27.46
2017-12-11T08:14:42.334Z,27.46
2017-12-11T08:17:10.369Z,27.19
2017-12-11T08:19:37.907Z,27.44
2017-12-11T08:22:06.872Z,27.59
2017-12-11T08:24:34.287Z,27.64
2017-12-11T08:27:01.797Z,27.41
2017-12-11T08:29:30.266Z,27.19
2017-12-11T08:31:57.909Z,27.58
2017-12-11T08:34:25.465Z,27.54
2017-12-11T08:36:53.019Z,27.32
2017-12-11T08:39:22.216Z,27.45
2017-12-11T08:41:49.853Z,27.36
2017-12-11T08:44:17.562Z,27.20
2017-12-11T08:46:45.738Z,27.48
2017-12-11T08:49:13.231Z,27.49
2017-12-11T08:51:40.776Z,27.06
2017-12-11T08:54:09.451Z,27.12
2017-12-11T08:56:37.097Z,27.44
2017-12-11T08:59:21.144Z,27.28
2017-12-11T09:01:49.212Z,27.21
2017-12-11T09:04:20.147Z,27.39
2017-12-11T09:06:47.655Z,27.27
2017-12-11T09:09:15.431Z,27.31
2017-12-11T09:11:43.117Z,27.60
2017-12-11T09:14:10.624Z,27.28
2017-12-11T09:16:38.156Z,27.41
2017-12-11T09:19:18.983Z,27.50
2017-12-11T09:21:46.622Z,27.60
2017-12-11T09:24:15.256Z,27.79
2017-12-11T09:26:43.298Z,27.63
2017-12-11T09:29:10.872Z,27.54
2017-12-11T09:31:39.257Z,27.12
2017-12-11T09:34:07.078Z,27.43
2017-12-11T09:36:34.590Z,27.34
2017-12-11T09:39:02.108Z,27.93
2017-12-11T09:41:29.670Z,27.54
2017-12-11T09:43:57.676Z,27.11
2017-12-11T09:46:25.260Z,27.30
2017-12-11T09:48:52.642Z,27.13
2017-12-11T09:51:20.048Z,27.10
2017-12-11T09:53:47.448Z,26.98
2017-12-11T09:56:14.924Z,27.51
2017-12-11T09:58:42.319Z,27.32
2017-12-11T10:01:09.815Z,27.39
2017-12-11T10:03:37.219Z,27.70
2017-12-11T10:06:04.651Z,27.19
2017-12-11T10:08:32.094Z,28.80
2017-12-11T10:10:59.576Z,26.90
2017-12-11T10:13:27.003Z,27.65
2017-12-11T10:15:54.439Z,27.09
2017-12-11T10:18:21.954Z,27.11
2017-12-11T10:20:49.382Z,27.56
2017-12-11T10:23:16.942Z,27.40
2017-12-11T10:25:44.523Z,27.29
2017-12-11T10:28:11.901Z,27.25
2017-12-11T10:30:39.452Z,27.22
2017-12-11T10:33:06.901Z,27.36
2017-12-11T10:35:35.854Z,27.27
2017-12-11T10:38:04.295Z,27.62
2017-12-11T10:40:31.723Z,27.54
2017-12-11T10:42:59.393Z,27.75
2017-12-11T10:45:27.435Z,27.69
2017-12-11T10:47:56.056Z,27.40
2017-12-11T10:50:23.906Z,27.60
2017-12-11T10:52:51.760Z,27.47
2017-12-11T10:55:19.200Z,27.64
2017-12-11T10:57:47.233Z,27.60
2017-12-11T11:00:14.950Z,27.62
2017-12-11T11:02:43.294Z,27.30
2017-12-11T11:05:10.927Z,27.27
2017-12-11T11:07:38.679Z,27.38
2017-12-11T11:10:20.285Z,27.24
2017-12-11T11:12:47.835Z,27.34
2017-12-11T11:15:15.511Z,27.41
2017-12-11T11:17:43.246Z,27.20
2017-12-11T11:20:10.836Z,27.87
2017-12-11T11:22:38.370Z,27.99
2017-12-11T11:25:05.849Z,27.86
2017-12-11T11:27:33.366Z,28.16
2017-12-11T11:30:00.971Z,27.36
2017-12-11T11:32:28.400Z,27.36
2017-12-11T11:34:55.933Z,27.34
2017-12-11T11:37:23.695Z,27.60
2017-12-11T11:39:51.110Z,27.45
2017-12-11T11:42:18.713Z,27.64
2017-12-11T11:44:46.250Z,27.82
2017-12-11T11:47:14.711Z,27.13
2017-12-11T11:49:42.639Z,26.66
2017-12-11T11:52:10.328Z,26.13
2017-12-11T11:54:37.770Z,27.08
2017-12-11T11:57:06.140Z,27.69
2017-12-11T11:59:33.762Z,27.60
2017-12-11T12:02:01.667Z,27.53
2017-12-11T12:04:30.322Z,28.00
2017-12-11T12:06:57.956Z,28.15
2017-12-11T12:09:25.655Z,28.12
2017-12-11T12:11:53.198Z,27.95
2017-12-11T12:14:22.244Z,28.22
2017-12-11T12:16:49.748Z,28.09
2017-12-11T12:19:17.209Z,28.27
2017-12-11T12:21:45.143Z,28.37
2017-12-11T12:24:12.817Z,28.07
2017-12-11T12:26:40.299Z,28.00
2017-12-11T12:29:07.799Z,28.11
2017-12-11T12:31:35.722Z,28.03
2017-12-11T12:34:03.184Z,28.29
2017-12-11T12:36:30.726Z,28.14
2017-12-11T12:38:58.656Z,28.17
2017-12-11T12:41:26.181Z,28.26
2017-12-11T12:43:53.893Z,28.17
2017-12-11T12:46:21.508Z,28.20
2017-12-11T12:48:48.959Z,28.22
2017-12-11T12:51:18.450Z,28.27
2017-12-11T12:53:46.462Z,28.22
2017-12-11T12:56:14.223Z,28.31
2017-12-11T12:58:41.953Z,28.34
2017-12-11T13:01:09.456Z,28.20
2017-12-11T13:03:45.621Z,28.52
2017-12-11T13:06:14.187Z,28.39
2017-12-11T13:08:42.683Z,28.23
2017-12-11T13:11:10.239Z,28.47
2017-12-11T13:13:37.961Z,28.34
2017-12-11T13:16:05.410Z,28.32
2017-12-11T13:18:32.893Z,28.32
2017-12-11T13:21:00.453Z,28.23
2017-12-11T13:23:27.980Z,28.15
2017-12-11T13:25:55.391Z,28.21
2017-12-11T13:28:23.077Z,28.18
2017-12-11T13:30:50.799Z,28.14
2017-12-11T13:33:18.251Z,28.22
2017-12-11T13:35:45.906Z,28.45
2017-12-11T13:38:13.731Z,28.36
2017-12-11T13:40:41.212Z,28.23
2017-12-11T13:43:10.307Z,28.07
2017-12-11T13:45:39.119Z,27.96
2017-12-11T13:48:07.992Z,28.02
2017-12-11T13:50:35.593Z,28.04
2017-12-11T13:53:03.046Z,28.03
2017-12-11T13:55:30.754Z,28.32
2017-12-11T13:58:01.354Z,28.15
2017-12-11T14:03:04.023Z,28.65
2017-12-11T14:05:32.279Z,28.26
2017-12-11T14:08:00.073Z,28.31
2017-12-11T14:10:28.412Z,28.24
2017-12-11T14:12:56.393Z,28.53
2017-12-11T14:15:24.430Z,28.47
2017-12-11T14:17:53.616Z,28.68
2017-12-11T14:20:22.784Z,27.97
2017-12-11T14:22:50.365Z,27.03
2017-12-11T14:25:19.296Z,27.98
2017-12-11T14:27:47.365Z,28.13
2017-12-11T14:30:15.118Z,28.45
2017-12-11T14:32:43.048Z,29.52
2017-12-11T14:35:10.528Z,28.67
2017-12-11T14:37:38.140Z,28.60
2017-12-11T14:40:06.403Z,28.62
2017-12-11T14:42:34.401Z,28.64
2017-12-11T14:45:02.089Z,28.64
2017-12-11T14:47:30.762Z,28.79
2017-12-11T14:49:58.590Z,28.73
2017-12-11T14:52:26.116Z,28.82
2017-12-11T14:54:54.707Z,28.82
2017-12-11T14:57:22.551Z,28.81
2017-12-11T14:59:50.677Z,28.96
2017-12-11T15:02:18.351Z,28.95
2017-12-11T15:04:52.151Z,29.14
2017-12-11T15:07:19.839Z,29.02
2017-12-11T15:09:47.357Z,29.00
2017-12-11T15:12:14.857Z,28.92
2017-12-11T15:14:43.124Z,28.84
2017-12-11T15:17:10.916Z,28.83
2017-12-11T15:19:38.516Z,28.85
2017-12-11T15:22:06.065Z,29.11
2017-12-11T15:24:33.743Z,29.10
2017-12-11T15:27:01.231Z,29.16
2017-12-11T15:29:28.830Z,29.10
2017-12-11T15:31:57.010Z,28.99
2017-12-11T15:34:24.903Z,29.19
2017-12-11T15:36:53.706Z,29.02
2017-12-11T15:39:22.565Z,28.92
2017-12-11T15:41:50.244Z,28.85
2017-12-11T15:44:17.785Z,28.83
2017-12-11T15:46:45.473Z,28.93
2017-12-11T15:49:15.845Z,28.82
2017-12-11T15:51:43.399Z,28.84
2017-12-11T15:54:11.305Z,29.03
2017-12-11T15:56:38.845Z,28.86
2017-12-11T15:59:06.332Z,29.09
2017-12-11T16:01:33.811Z,28.97
2017-12-11T16:04:01.228Z,29.03
2017-12-11T16:06:29.298Z,29.13
2017-12-11T16:08:56.868Z,29.07
2017-12-11T16:11:24.480Z,29.09
2017-12-11T16:13:52.823Z,28.95
2017-12-11T16:16:20.287Z,29.16
2017-12-11T16:18:48.044Z,29.05
2017-12-11T16:21:15.715Z,29.08
2017-12-11T16:23:43.224Z,29.25
2017-12-11T16:26:10.668Z,29.16
2017-12-11T16:28:38.190Z,29.33
2017-12-11T16:31:05.706Z,29.13
2017-12-11T16:33:33.095Z,29.17
2017-12-11T16:36:01.717Z,29.16
2017-12-11T16:38:29.126Z,29.16
2017-12-11T16:40:56.565Z,29.12
2017-12-11T16:43:24.009Z,29.21
2017-12-11T16:45:53.714Z,29.11
2017-12-11T16:48:21.187Z,28.71
2017-12-11T16:50:48.574Z,28.99
2017-12-11T16:53:16.034Z,29.30
2017-12-11T16:55:43.558Z,28.99
2017-12-11T16:58:11.254Z,28.98
2017-12-11T17:00:38.654Z,29.00
2017-12-11T17:03:06.063Z,28.95
2017-12-11T17:05:33.518Z,28.95
2017-12-11T17:08:00.952Z,28.93
2017-12-11T17:10:28.412Z,28.94
2017-12-11T17:12:55.844Z,28.90
2017-12-11T17:15:23.336Z,28.96
2017-12-11T17:17:52.028Z,28.98
2017-12-11T17:20:19.490Z,29.06
2017-12-11T17:22:46.943Z,28.91
2017-12-11T17:25:14.381Z,28.94
2017-12-11T17:27:41.798Z,28.89
2017-12-11T17:30:09.281Z,28.92
2017-12-11T17:32:36.686Z,28.91
2017-12-11T17:35:04.152Z,28.98
2017-12-11T17:37:31.539Z,28.96
2017-12-11T17:39:58.964Z,28.95
2017-12-11T17:42:26.338Z,28.92
2017-12-11T17:44:53.785Z,28.83
2017-12-11T17:47:21.249Z,28.85
2017-12-11T17:49:48.676Z,28.93
2017-12-11T17:52:16.087Z,29.03
2017-12-11T17:54:43.506Z,29.22
2017-12-11T17:57:10.919Z,29.28
2017-12-11T17:59:38.314Z,29.24
2017-12-11T18:02:06.339Z,29.38
2017-12-11T18:04:33.760Z,29.30
2017-12-11T18:07:01.709Z,29.38
2017-12-11T18:09:29.131Z,29.52
2017-12-11T18:11:56.555Z,29.58
2017-12-11T18:14:25.719Z,29.74
2017-12-11T18:16:53.167Z,29.80
2017-12-11T18:19:20.578Z,29.87
2017-12-11T18:21:48.030Z,29.95
2017-12-11T18:24:15.412Z,30.01
2017-12-11T18:26:43.068Z,29.93
2017-12-11T18:29:10.650Z,29.91
2017-12-11T18:31:38.047Z,30.05
2017-12-11T18:34:06.611Z,30.08
2017-12-11T18:36:34.014Z,30.15
2017-12-11T18:39:01.868Z,30.25
2017-12-11T18:41:29.237Z,30.17
2017-12-11T18:43:56.643Z,30.24
2017-12-11T18:46:24.058Z,30.34
2017-12-11T18:48:51.463Z,30.38
2017-12-11T18:51:18.894Z,30.36
2017-12-11T18:53:48.057Z,30.45
2017-12-11T18:56:20.484Z,30.47
2017-12-11T18:58:49.512Z,30.50
2017-12-11T19:01:16.919Z,30.52
2017-12-11T19:03:44.484Z,30.55
2017-12-11T19:06:12.519Z,30.51
2017-12-11T19:08:40.092Z,30.59
2017-12-11T19:11:07.648Z,30.66
2017-12-11T19:13:35.091Z,30.63
2017-12-11T19:16:03.335Z,30.64
2017-12-11T19:18:30.875Z,30.71
2017-12-11T19:20:58.307Z,30.68
2017-12-11T19:23:25.720Z,30.67
2017-12-11T19:25:53.724Z,30.72
2017-12-11T19:28:21.762Z,30.75
2017-12-11T19:30:49.476Z,30.81
2017-12-11T19:33:16.913Z,30.83
2017-12-11T19:35:44.406Z,30.94
2017-12-11T19:38:11.822Z,30.92
2017-12-11T19:40:39.254Z,30.84
2017-12-11T19:43:06.844Z,30.86
2017-12-11T19:45:34.272Z,30.86
2017-12-11T19:48:01.706Z,30.91
2017-12-11T19:50:29.158Z,30.89
2017-12-11T19:52:58.009Z,30.92
2017-12-11T19:55:25.473Z,30.92
2017-12-11T19:57:52.939Z,30.94
2017-12-11T20:00:20.576Z,30.95
2017-12-11T20:02:48.107Z,30.83
2017-12-11T20:05:15.568Z,30.87
2017-12-11T20:07:43.116Z,31.02
2017-12-11T20:10:10.530Z,31.02
2017-12-11T20:12:37.965Z,31.07
2017-12-11T20:15:05.868Z,30.92
2017-12-11T20:17:33.538Z,31.16
2017-12-11T20:20:00.950Z,31.05
2017-12-11T20:22:28.382Z,31.04
2017-12-11T20:24:55.822Z,31.04
2017-12-11T20:27:25.483Z,31.07
2017-12-11T20:29:52.968Z,31.13
2017-12-11T20:32:20.904Z,31.13
2017-12-11T20:34:48.332Z,31.06
2017-12-11T20:37:15.785Z,31.11
2017-12-11T20:39:43.192Z,31.08
2017-12-11T20:42:10.645Z,31.13
2017-12-11T20:44:38.117Z,31.01
2017-12-11T20:47:05.603Z,31.14
2017-12-11T20:49:33.078Z,31.17
2017-12-11T20:52:00.483Z,31.17
2017-12-11T20:54:27.858Z,31.20
2017-12-11T20:56:56.015Z,31.20
2017-12-11T20:59:23.456Z,31.18
2017-12-11T21:01:50.947Z,31.28
2017-12-11T21:04:19.516Z,31.32
2017-12-11T21:06:46.970Z,31.36
2017-12-11T21:09:14.467Z,31.31
2017-12-11T21:11:41.878Z,31.35
2017-12-11T21:14:09.265Z,31.31
2017-12-11T21:16:36.742Z,31.33
2017-12-11T21:19:04.296Z,31.36
2017-12-11T21:21:31.742Z,31.30
2017-12-11T21:23:59.230Z,31.36
2017-12-11T21:26:26.669Z,31.50
2017-12-11T21:28:54.765Z,31.28
2017-12-11T21:31:22.463Z,31.37
2017-12-11T21:33:49.925Z,31.30
2017-12-11T21:36:17.358Z,31.29
2017-12-11T21:38:44.797Z,31.31
2017-12-11T21:41:12.190Z,31.28
2017-12-11T21:43:39.677Z,31.50
2017-12-11T21:46:07.140Z,31.43
2017-12-11T21:48:34.763Z,31.38
2017-12-11T21:51:02.186Z,31.41
2017-12-11T21:53:29.788Z,31.45
2017-12-11T21:55:57.323Z,31.53
2017-12-11T21:58:24.731Z,31.54
2017-12-11T22:00:52.161Z,31.53
2017-12-11T22:03:19.648Z,31.63
2017-12-11T22:05:47.453Z,31.61
2017-12-11T22:08:15.001Z,31.51
2017-12-11T22:10:42.410Z,31.64
2017-12-11T22:13:10.244Z,31.55
2017-12-11T22:15:37.929Z,31.54
2017-12-11T22:18:05.691Z,31.47
2017-12-11T22:20:35.649Z,31.49
2017-12-11T22:23:03.167Z,31.54
2017-12-11T22:25:30.553Z,31.58
2017-12-11T22:27:57.991Z,31.51
2017-12-11T22:30:25.361Z,31.57
2017-12-11T22:32:53.683Z,31.55
2017-12-11T22:35:21.231Z,31.69
2017-12-11T22:37:48.730Z,31.46
2017-12-11T22:40:16.212Z,31.51
2017-12-11T22:42:44.054Z,31.46
2017-12-11T22:45:11.665Z,31.51
2017-12-11T22:47:40.030Z,31.63
2017-12-11T22:50:07.513Z,31.57
2017-12-11T22:52:35.223Z,31.68
2017-12-11T22:55:02.788Z,31.70
2017-12-11T22:57:30.217Z,31.62
2017-12-11T22:59:58.526Z,31.55
2017-12-11T23:02:26.148Z,31.61
2017-12-11T23:04:53.539Z,31.56
2017-12-11T23:07:20.975Z,31.64
2017-12-11T23:09:48.388Z,31.75
2017-12-11T23:12:15.803Z,31.77
2017-12-11T23:14:43.232Z,31.69
2017-12-11T23:17:10.602Z,31.62
2017-12-11T23:19:38.048Z,31.86
2017-12-11T23:22:05.762Z,31.68
2017-12-11T23:24:34.003Z,31.71
2017-12-11T23:27:01.409Z,31.62
2017-12-11T23:29:28.853Z,31.71
2017-12-11T23:31:56.344Z,31.72
2017-12-11T23:34:23.875Z,31.63
2017-12-11T23:36:51.256Z,31.65
2017-12-11T23:39:19.237Z,31.59
2017-12-11T23:41:46.976Z,31.71
2017-12-11T23:44:14.426Z,31.74
2017-12-11T23:46:41.797Z,31.71
2017-12-11T23:49:09.564Z,31.63
2017-12-11T23:51:36.957Z,31.69
2017-12-11T23:54:04.688Z,31.76
2017-12-11T23:56:32.678Z,31.69
2017-12-11T23:59:00.279Z,31.62
